Time;durP1;ratioP1;P1;durP2;ratioP2;P2;SDS_P1;SDS_P2;PMS_P1;PMS_P2;Temp;Humidity;BMP_temperature;BMP_pressure;BME280_temperature;BME280_humidity;BME280_pressure;Samples;Min_cycle;Max_cycle;Signal;HPM_P1;HPM_P2
2023/04/01 00:00:21;;;;;;;14.13;9.95;;;;;;;;;;5012334;28;20056;-74
2023/04/01 00:02:47;;;;;;;17.70;10.63;;;;;;;;;;5008605;28;20049;-73
2023/04/01 00:05:13;;;;;;;16.38;10.65;;;;;;;;;;5011515;28;20041;-74
2023/04/01 00:07:40;;;;;;;16.52;11.27;;;;;;;;;;5010245;28;20069;-75
2023/04/01 00:10:07;;;;;;;16.25;10.52;;;;;;;;;;4994849;28;20037;-74
2023/04/01 00:12:33;;;;;;;21.20;11.77;;;;;;;;;;5010025;28;20055;-74
2023/04/01 00:14:59;;;;;;;16.73;11.15;;;;;;;;;;5010166;28;20268;-74
2023/04/01 00:17:25;;;;;;;26.15;12.15;;;;;;;;;;5008999;28;20060;-73
2023/04/01 00:19:52;;;;;;;18.38;11.70;;;;;;;;;;5008980;28;20060;-73
2023/04/01 00:22:18;;;;;;;21.63;12.68;;;;;;;;;;5008269;28;20044;-74
2023/04/01 00:24:44;;;;;;;22.75;13.15;;;;;;;;;;5012007;28;20476;-74
2023/04/01 00:27:10;;;;;;;22.52;12.82;;;;;;;;;;4996641;28;20125;-74
2023/04/01 00:29:37;;;;;;;29.10;13.45;;;;;;;;;;5011690;28;20036;-74
2023/04/01 00:32:03;;;;;;;23.05;13.00;;;;;;;;;;5007669;28;20046;-74
2023/04/01 00:34:29;;;;;;;23.23;14.68;;;;;;;;;;5011298;28;20041;-74
2023/04/01 00:36:55;;;;;;;23.50;14.15;;;;;;;;;;5009285;28;21652;-74
2023/04/01 00:39:21;;;;;;;19.38;14.32;;;;;;;;;;5008679;28;20080;-75
2023/04/01 00:41:48;;;;;;;23.17;14.30;;;;;;;;;;5010455;28;20131;-74
2023/04/01 00:44:17;;;;;;;22.50;13.43;;;;;;;;;;5008840;28;20044;-74
2023/04/01 00:46:44;;;;;;;25.45;13.52;;;;;;;;;;5010564;28;20098;-74
2023/04/01 00:49:10;;;;;;;21.27;12.65;;;;;;;;;;5012173;28;20045;-74
2023/04/01 00:51:37;;;;;;;21.85;13.68;;;;;;;;;;5008560;28;20032;-74
2023/04/01 00:54:05;;;;;;;26.80;13.77;;;;;;;;;;5009065;28;20099;-74
2023/04/01 00:56:35;;;;;;;24.90;14.40;;;;;;;;;;5014084;28;20152;-74
2023/04/01 00:59:02;;;;;;;24.58;14.65;;;;;;;;;;5012209;28;20041;-74
2023/04/01 01:01:30;;;;;;;26.40;14.65;;;;;;;;;;5012708;28;20139;-74
2023/04/01 01:03:56;;;;;;;19.40;13.70;;;;;;;;;;5014219;28;20156;-74
2023/04/01 01:06:31;;;;;;;23.17;13.98;;;;;;;;;;5013876;28;20064;-74
2023/04/01 01:09:09;;;;;;;22.10;13.77;;;;;;;;;;5015058;28;20077;-74
2023/04/01 01:11:43;;;;;;;23.17;14.85;;;;;;;;;;5016815;28;20159;-74
2023/04/01 01:14:13;;;;;;;29.95;14.95;;;;;;;;;;5016900;28;20076;-74
2023/04/01 01:16:44;;;;;;;25.50;14.95;;;;;;;;;;5016830;28;20650;-74
2023/04/01 01:19:26;;;;;;;27.88;15.25;;;;;;;;;;5017049;28;20114;-74
2023/04/01 01:22:07;;;;;;;22.38;14.77;;;;;;;;;;5014182;28;20519;-74
2023/04/01 01:24:43;;;;;;;30.10;16.15;;;;;;;;;;5016617;28;20175;-74
2023/04/01 01:27:15;;;;;;;28.23;17.63;;;;;;;;;;5010774;28;20048;-74
2023/04/01 01:30:00;;;;;;;29.60;17.00;;;;;;;;;;5012611;28;20041;-74
2023/04/01 01:32:35;;;;;;;27.02;16.67;;;;;;;;;;5005660;28;20103;-74
2023/04/01 01:35:14;;;;;;;24.90;16.15;;;;;;;;;;5003477;28;20089;-74
2023/04/01 01:37:41;;;;;;;29.60;17.17;;;;;;;;;;5008918;28;20041;-74
2023/04/01 01:40:10;;;;;;;28.77;16.58;;;;;;;;;;5003166;28;20064;-74
2023/04/01 01:42:38;;;;;;;29.48;17.55;;;;;;;;;;5000725;28;20049;-75
2023/04/01 01:45:05;;;;;;;25.98;17.40;;;;;;;;;;5003573;28;20049;-75
2023/04/01 01:47:32;;;;;;;26.08;15.80;;;;;;;;;;5023316;28;20057;-75
2023/04/01 01:49:58;;;;;;;27.77;16.85;;;;;;;;;;5008236;28;20049;-74
2023/04/01 01:52:24;;;;;;;24.45;16.58;;;;;;;;;;5001638;28;20041;-74
2023/04/01 01:54:51;;;;;;;28.55;17.42;;;;;;;;;;5008253;28;20041;-74
2023/04/01 01:57:19;;;;;;;29.75;18.63;;;;;;;;;;5014309;28;20055;-73
2023/04/01 01:59:46;;;;;;;25.17;17.05;;;;;;;;;;5012313;28;20049;-73
2023/04/01 02:02:13;;;;;;;30.02;17.83;;;;;;;;;;5009865;28;20481;-73
2023/04/01 02:04:41;;;;;;;29.83;17.20;;;;;;;;;;5012335;28;20038;-73
2023/04/01 02:07:10;;;;;;;29.98;16.98;;;;;;;;;;5015426;28;20393;-73
2023/04/01 02:09:37;;;;;;;26.90;17.73;;;;;;;;;;5012075;28;20139;-73
2023/04/01 02:12:05;;;;;;;27.17;17.50;;;;;;;;;;5012763;28;20076;-73
2023/04/01 02:14:34;;;;;;;32.55;18.10;;;;;;;;;;5008215;28;20064;-73
2023/04/01 02:17:04;;;;;;;31.50;17.50;;;;;;;;;;5009902;28;20057;-73
2023/04/01 02:19:34;;;;;;;28.02;17.23;;;;;;;;;;5012769;28;21069;-74
2023/04/01 02:22:03;;;;;;;29.77;17.27;;;;;;;;;;5012441;28;20055;-73
2023/04/01 02:24:31;;;;;;;28.10;17.80;;;;;;;;;;5011318;28;20375;-73
2023/04/01 02:26:57;;;;;;;25.92;17.35;;;;;;;;;;5015042;28;20478;-74
2023/04/01 02:29:25;;;;;;;28.83;18.02;;;;;;;;;;5014541;28;20042;-73
2023/04/01 02:31:51;;;;;;;30.58;17.40;;;;;;;;;;5009470;28;20112;-73
2023/04/01 02:34:17;;;;;;;30.13;18.77;;;;;;;;;;5013610;28;20123;-73
2023/04/01 02:36:44;;;;;;;28.80;18.52;;;;;;;;;;5010149;28;20045;-73
2023/04/01 02:39:10;;;;;;;31.67;18.73;;;;;;;;;;5007296;28;20541;-73
2023/04/01 02:41:43;;;;;;;31.35;19.35;;;;;;;;;;5012307;28;20385;-73
2023/04/01 02:44:10;;;;;;;37.55;18.95;;;;;;;;;;5010051;28;20044;-73
2023/04/01 02:46:36;;;;;;;29.42;18.33;;;;;;;;;;5013031;28;20041;-73
2023/04/01 02:49:03;;;;;;;29.15;18.00;;;;;;;;;;5011829;28;20107;-73
2023/04/01 02:51:29;;;;;;;31.25;18.58;;;;;;;;;;5012153;28;20057;-72
2023/04/01 02:53:55;;;;;;;31.65;18.80;;;;;;;;;;5011699;28;20824;-73
2023/04/01 02:56:21;;;;;;;34.92;19.15;;;;;;;;;;5011224;28;20049;-73
2023/04/01 02:58:48;;;;;;;34.40;18.88;;;;;;;;;;5009324;28;20049;-73
2023/04/01 03:01:14;;;;;;;41.30;20.13;;;;;;;;;;5012233;28;20060;-73
2023/04/01 03:03:40;;;;;;;35.60;19.63;;;;;;;;;;5010010;28;20612;-73
2023/04/01 03:06:07;;;;;;;31.73;19.48;;;;;;;;;;5011956;28;20107;-74
2023/04/01 03:08:33;;;;;;;37.78;19.90;;;;;;;;;;5008602;28;20547;-73
2023/04/01 03:10:59;;;;;;;36.70;21.45;;;;;;;;;;4995286;28;20657;-73
2023/04/01 03:13:25;;;;;;;33.13;19.48;;;;;;;;;;5009532;28;20147;-73
2023/04/01 03:15:51;;;;;;;35.45;21.10;;;;;;;;;;5012486;28;20888;-73
2023/04/01 03:18:17;;;;;;;37.65;20.38;;;;;;;;;;5010252;28;20049;-73
2023/04/01 03:20:44;;;;;;;36.03;20.85;;;;;;;;;;5011157;28;20041;-73
2023/04/01 03:23:10;;;;;;;33.38;20.33;;;;;;;;;;5015107;28;20083;-73
2023/04/01 03:25:36;;;;;;;35.60;20.60;;;;;;;;;;5015044;28;20405;-73
2023/04/01 03:28:02;;;;;;;39.58;20.70;;;;;;;;;;5011423;28;20183;-73
2023/04/01 03:30:30;;;;;;;44.53;23.50;;;;;;;;;;5013344;28;20041;-73
2023/04/01 03:32:57;;;;;;;44.65;22.45;;;;;;;;;;5010647;28;20589;-73
2023/04/01 03:35:23;;;;;;;45.25;22.67;;;;;;;;;;4997066;28;20977;-73
2023/04/01 03:37:50;;;;;;;41.38;22.25;;;;;;;;;;5015134;28;20398;-73
2023/04/01 03:40:17;;;;;;;45.42;21.77;;;;;;;;;;5013183;28;20041;-73
2023/04/01 03:42:43;;;;;;;37.45;21.73;;;;;;;;;;5016953;28;20444;-73
2023/04/01 03:45:09;;;;;;;43.30;22.10;;;;;;;;;;4996245;28;20045;-73
2023/04/01 03:47:35;;;;;;;36.20;21.55;;;;;;;;;;5014861;28;20057;-74
2023/04/01 03:50:02;;;;;;;43.58;21.58;;;;;;;;;;5004216;28;20040;-73
2023/04/01 03:52:28;;;;;;;43.85;22.05;;;;;;;;;;5014608;28;20041;-73
2023/04/01 03:54:54;;;;;;;46.40;21.95;;;;;;;;;;5016187;28;20041;-72
2023/04/01 03:57:20;;;;;;;45.00;21.50;;;;;;;;;;5012201;28;20131;-73
2023/04/01 03:59:46;;;;;;;42.83;21.73;;;;;;;;;;5012923;28;20106;-73
2023/04/01 04:02:12;;;;;;;42.88;21.83;;;;;;;;;;5012029;28;20382;-73
2023/04/01 04:04:38;;;;;;;44.90;23.00;;;;;;;;;;5010625;28;20038;-73
2023/04/01 04:07:04;;;;;;;46.53;22.77;;;;;;;;;;5010226;28;20056;-73
2023/04/01 04:09:31;;;;;;;47.67;23.08;;;;;;;;;;5011221;28;20465;-73
2023/04/01 04:11:57;;;;;;;43.50;22.67;;;;;;;;;;5017371;28;20045;-73
2023/04/01 04:14:24;;;;;;;48.88;23.77;;;;;;;;;;5007336;28;20060;-73
2023/04/01 04:16:50;;;;;;;39.05;20.73;;;;;;;;;;5010504;28;20128;-74
2023/04/01 04:19:16;;;;;;;29.98;18.42;;;;;;;;;;5014558;28;20151;-73
2023/04/01 04:21:42;;;;;;;36.25;18.15;;;;;;;;;;5010833;28;20486;-73
2023/04/01 04:24:09;;;;;;;30.75;17.85;;;;;;;;;;4999724;28;20041;-73
2023/04/01 04:26:35;;;;;;;34.42;18.17;;;;;;;;;;4992740;28;20052;-73
2023/04/01 04:29:01;;;;;;;36.13;17.63;;;;;;;;;;5009370;28;20950;-73
2023/04/01 04:31:28;;;;;;;34.05;17.40;;;;;;;;;;5012600;28;20102;-74
2023/04/01 04:33:54;;;;;;;34.28;17.67;;;;;;;;;;5012208;28;20405;-74
2023/04/01 04:36:21;;;;;;;29.52;16.67;;;;;;;;;;5016331;28;20128;-74
2023/04/01 04:38:47;;;;;;;30.70;17.65;;;;;;;;;;5018856;28;20060;-74
2023/04/01 04:41:15;;;;;;;31.30;16.80;;;;;;;;;;5007824;28;21972;-74
2023/04/01 04:43:41;;;;;;;37.65;19.05;;;;;;;;;;5022697;28;20259;-74
2023/04/01 04:46:08;;;;;;;37.13;18.38;;;;;;;;;;5023278;28;20123;-73
2023/04/01 04:48:34;;;;;;;38.65;19.88;;;;;;;;;;5008121;28;20037;-73
2023/04/01 04:51:00;;;;;;;40.60;20.63;;;;;;;;;;5016457;28;20424;-74
2023/04/01 04:53:27;;;;;;;42.92;21.40;;;;;;;;;;5017588;28;20041;-73
2023/04/01 04:55:53;;;;;;;47.67;23.08;;;;;;;;;;5017118;28;20049;-74
2023/04/01 04:58:19;;;;;;;43.83;22.85;;;;;;;;;;5020276;28;20041;-74
2023/04/01 05:00:45;;;;;;;47.17;23.77;;;;;;;;;;5021678;28;21007;-74
2023/04/01 05:03:12;;;;;;;42.30;23.05;;;;;;;;;;5019086;28;20144;-74
2023/04/01 05:05:39;;;;;;;48.25;24.73;;;;;;;;;;5023364;28;20076;-73
2023/04/01 05:08:05;;;;;;;58.38;26.02;;;;;;;;;;5023688;28;21009;-73
2023/04/01 05:10:31;;;;;;;44.47;24.90;;;;;;;;;;5020493;28;20045;-73
2023/04/01 05:12:57;;;;;;;46.92;24.83;;;;;;;;;;5019181;28;20077;-74
2023/04/01 05:15:24;;;;;;;48.15;26.23;;;;;;;;;;5019385;28;20453;-73
2023/04/01 05:17:50;;;;;;;57.85;27.35;;;;;;;;;;5020514;28;20127;-73
2023/04/01 05:20:16;;;;;;;51.33;27.00;;;;;;;;;;5019232;28;20045;-73
2023/04/01 05:22:43;;;;;;;47.80;25.58;;;;;;;;;;5020750;28;20036;-73
2023/04/01 05:25:09;;;;;;;49.35;26.20;;;;;;;;;;5020677;28;20120;-73
2023/04/01 05:27:36;;;;;;;45.80;25.73;;;;;;;;;;5016249;28;20056;-74
2023/04/01 05:30:02;;;;;;;50.38;27.63;;;;;;;;;;5015790;28;20040;-74
2023/04/01 05:32:28;;;;;;;53.20;28.20;;;;;;;;;;4999710;28;20088;-74
2023/04/01 05:34:54;;;;;;;60.88;28.30;;;;;;;;;;5015138;28;20556;-74
2023/04/01 05:37:20;;;;;;;50.67;27.67;;;;;;;;;;5015481;28;20100;-74
2023/04/01 05:39:46;;;;;;;55.63;28.90;;;;;;;;;;5015790;28;20584;-73
2023/04/01 05:42:13;;;;;;;55.38;28.25;;;;;;;;;;5017489;28;20036;-73
2023/04/01 05:44:39;;;;;;;53.17;28.90;;;;;;;;;;5014456;28;20042;-74
2023/04/01 05:47:05;;;;;;;50.40;27.48;;;;;;;;;;5013721;28;22064;-74
2023/04/01 05:49:31;;;;;;;53.47;29.25;;;;;;;;;;5014827;28;20123;-73
2023/04/01 05:51:57;;;;;;;55.22;28.23;;;;;;;;;;5007506;28;20624;-73
2023/04/01 05:54:23;;;;;;;53.50;28.67;;;;;;;;;;5014382;28;20041;-74
2023/04/01 05:56:49;;;;;;;57.42;28.70;;;;;;;;;;5016206;28;20067;-74
2023/04/01 05:59:15;;;;;;;58.78;30.08;;;;;;;;;;5000034;28;20130;-73
2023/04/01 06:01:42;;;;;;;55.85;30.17;;;;;;;;;;5014516;28;20048;-73
2023/04/01 06:04:11;;;;;;;52.53;28.17;;;;;;;;;;5019443;28;20045;-73
2023/04/01 06:06:37;;;;;;;52.63;28.77;;;;;;;;;;5022529;28;20176;-73
2023/04/01 06:09:15;;;;;;;52.05;28.13;;;;;;;;;;5024735;28;20045;-73
2023/04/01 06:11:44;;;;;;;52.67;28.17;;;;;;;;;;5022715;28;20114;-73
2023/04/01 06:14:29;;;;;;;53.33;28.92;;;;;;;;;;5022058;28;20091;-74
2023/04/01 06:17:01;;;;;;;50.10;28.83;;;;;;;;;;5021128;28;20061;-73
2023/04/01 06:19:34;;;;;;;50.08;28.17;;;;;;;;;;5016941;28;20060;-74
2023/04/01 06:22:12;;;;;;;56.45;29.33;;;;;;;;;;5018773;28;20063;-74
2023/04/01 06:24:38;;;;;;;45.40;27.35;;;;;;;;;;5021719;28;20095;-73
2023/04/01 06:27:04;;;;;;;43.45;26.83;;;;;;;;;;5022087;28;20067;-73
2023/04/01 06:30:09;;;;;;;47.85;28.05;;;;;;;;;;5019453;28;20053;-73
2023/04/01 06:32:38;;;;;;;45.67;26.35;;;;;;;;;;5003438;28;20076;-74
2023/04/01 06:35:20;;;;;;;51.75;28.83;;;;;;;;;;4998692;28;20053;-74
2023/04/01 06:38:01;;;;;;;46.47;26.75;;;;;;;;;;5019275;28;20421;-74
2023/04/01 06:40:39;;;;;;;45.90;26.50;;;;;;;;;;5014547;28;20051;-74
2023/04/01 06:43:24;;;;;;;45.10;25.73;;;;;;;;;;4999938;28;20049;-75
2023/04/01 06:45:58;;;;;;;46.47;25.08;;;;;;;;;;5014314;28;20168;-74
2023/04/01 06:48:42;;;;;;;43.38;25.17;;;;;;;;;;5014118;28;20089;-75
2023/04/01 06:51:08;;;;;;;;;;;;;;;;;;5014488;28;22238;-75
2023/04/01 06:53:39;;;;;;;41.05;24.77;;;;;;;;;;5017784;28;19921;-75
2023/04/01 06:56:13;;;;;;;42.40;24.85;;;;;;;;;;5015214;28;20493;-75
2023/04/01 06:58:44;;;;;;;36.45;24.42;;;;;;;;;;5015291;28;20037;-74
2023/04/01 07:01:17;;;;;;;42.63;26.33;;;;;;;;;;5014380;28;20073;-75
2023/04/01 07:04:02;;;;;;;36.92;23.75;;;;;;;;;;5016980;28;20047;-74
2023/04/01 07:06:33;;;;;;;36.53;24.65;;;;;;;;;;5016837;28;20049;-73
2023/04/01 07:09:01;;;;;;;35.35;23.92;;;;;;;;;;5016170;28;20129;-74
2023/04/01 07:11:32;;;;;;;36.55;24.42;;;;;;;;;;5015794;28;20057;-74
2023/04/01 07:14:09;;;;;;;30.05;22.02;;;;;;;;;;5017213;28;20053;-74
2023/04/01 07:16:41;;;;;;;33.80;22.98;;;;;;;;;;5001938;28;20057;-76
2023/04/01 07:19:26;;;;;;;33.50;23.00;;;;;;;;;;5018763;28;20041;-75
2023/04/01 07:21:55;;;;;;;35.47;22.83;;;;;;;;;;5034178;28;20059;-76
2023/04/01 07:24:26;;;;;;;35.95;22.13;;;;;;;;;;5020992;28;20128;-75
2023/04/01 07:26:56;;;;;;;33.85;23.45;;;;;;;;;;5020837;28;20045;-78
2023/04/01 07:29:22;;;;;;;35.13;22.88;;;;;;;;;;5017020;28;20050;-75
2023/04/01 07:31:54;;;;;;;32.67;21.90;;;;;;;;;;5014974;28;20075;-75
2023/04/01 07:34:26;;;;;;;31.50;22.20;;;;;;;;;;5012741;28;20162;-76
2023/04/01 07:37:19;;;;;;;30.98;22.25;;;;;;;;;;5011601;28;20052;-75
2023/04/01 07:40:01;;;;;;;33.70;22.27;;;;;;;;;;5011097;28;20061;-76
2023/04/01 07:42:42;;;;;;;32.78;22.75;;;;;;;;;;4999886;28;20194;-75
2023/04/01 07:45:14;;;;;;;33.20;21.50;;;;;;;;;;5013401;28;20053;-75
2023/04/01 07:47:59;;;;;;;30.73;21.20;;;;;;;;;;5012997;28;20102;-75
2023/04/01 07:50:30;;;;;;;36.58;22.48;;;;;;;;;;5017216;28;20032;-76
2023/04/01 07:52:59;;;;;;;31.55;20.83;;;;;;;;;;5012852;28;20315;-76
2023/04/01 07:55:34;;;;;;;27.15;19.80;;;;;;;;;;5014074;28;20128;-76
2023/04/01 07:58:20;;;;;;;31.42;20.92;;;;;;;;;;5016093;28;20221;-76
2023/04/01 08:00:46;;;;;;;28.92;20.60;;;;;;;;;;5014408;28;20127;-76
2023/04/01 08:03:34;;;;;;;30.33;20.67;;;;;;;;;;5000901;28;20543;-77
2023/04/01 08:06:00;;;;;;;26.65;19.67;;;;;;;;;;5015416;28;20061;-73
2023/04/01 08:08:32;;;;;;;28.90;19.23;;;;;;;;;;5006734;28;20063;-74
2023/04/01 08:11:09;;;;;;;12.00;8.75;;;;;;;;;;5017377;28;20041;-74
2023/04/01 08:13:54;;;;;;;8.75;5.32;;;;;;;;;;5020863;28;20547;-72
2023/04/01 08:16:35;;;;;;;6.30;5.63;;;;;;;;;;5014592;28;20049;-73
2023/04/01 08:19:20;;;;;;;7.10;4.75;;;;;;;;;;5015117;28;20041;-73
2023/04/01 08:21:49;;;;;;;7.43;5.10;;;;;;;;;;5017221;28;20042;-73
2023/04/01 08:24:27;;;;;;;9.68;6.95;;;;;;;;;;4999162;28;20133;-74
2023/04/01 08:26:55;;;;;;;10.43;6.65;;;;;;;;;;5014214;28;20077;-73
2023/04/01 08:29:39;;;;;;;10.18;6.10;;;;;;;;;;5017407;28;20484;-73
2023/04/01 08:32:05;;;;;;;8.75;6.13;;;;;;;;;;5016816;28;20083;-73
2023/04/01 08:34:37;;;;;;;8.52;5.03;;;;;;;;;;5014328;28;20059;-73
2023/04/01 08:37:24;;;;;;;7.65;4.10;;;;;;;;;;5014452;28;20045;-73
2023/04/01 08:39:56;;;;;;;8.07;4.30;;;;;;;;;;5013627;28;20529;-73
2023/04/01 08:42:40;;;;;;;5.40;3.42;;;;;;;;;;5031458;28;20839;-73
2023/04/01 08:45:06;;;;;;;;;;;;;;;;;;5009174;28;20650;-73
2023/04/01 08:47:51;;;;;;;7.65;3.58;;;;;;;;;;5010823;28;19928;-73
2023/04/01 08:50:36;;;;;;;7.03;2.95;;;;;;;;;;5005929;28;20501;-73
2023/04/01 08:53:14;;;;;;;6.03;3.00;;;;;;;;;;4992338;28;20131;-74
2023/04/01 08:55:44;;;;;;;4.13;3.05;;;;;;;;;;5011694;28;20876;-73
2023/04/01 08:58:22;;;;;;;7.68;3.50;;;;;;;;;;5008490;28;20049;-73
2023/04/01 09:01:03;;;;;;;7.68;5.25;;;;;;;;;;5009589;28;20147;-73
2023/04/01 09:03:32;;;;;;;3.55;2.45;;;;;;;;;;5005822;28;20089;-73
2023/04/01 09:06:37;;;;;;;7.15;4.47;;;;;;;;;;5006261;28;20045;-72
2023/04/01 09:09:17;;;;;;;3.75;2.83;;;;;;;;;;4975789;28;20049;-72
2023/04/01 09:12:01;;;;;;;4.05;2.80;;;;;;;;;;4974887;28;21177;-72
2023/04/01 09:14:36;;;;;;;6.57;3.47;;;;;;;;;;4983242;28;20053;-73
2023/04/01 09:17:06;;;;;;;5.85;2.58;;;;;;;;;;5013932;28;20049;-72
2023/04/01 09:19:35;;;;;;;6.15;2.90;;;;;;;;;;5007990;28;21686;-73
2023/04/01 09:22:18;;;;;;;4.78;2.85;;;;;;;;;;5015041;28;20052;-73
2023/04/01 09:24:50;;;;;;;4.47;2.93;;;;;;;;;;5014453;28;20049;-72
2023/04/01 09:27:31;;;;;;;6.00;2.80;;;;;;;;;;5015791;28;20409;-72
2023/04/01 09:30:15;;;;;;;7.80;2.42;;;;;;;;;;5016951;28;20056;-74
2023/04/01 09:33:08;;;;;;;7.40;3.05;;;;;;;;;;5015676;28;20128;-73
2023/04/01 09:35:40;;;;;;;7.03;3.30;;;;;;;;;;5013176;28;20052;-74
2023/04/01 09:38:22;;;;;;;4.70;2.40;;;;;;;;;;4993267;28;20562;-73
2023/04/01 09:40:54;;;;;;;3.83;2.50;;;;;;;;;;5014949;28;20046;-73
2023/04/01 09:43:25;;;;;;;3.67;2.30;;;;;;;;;;5013122;28;20122;-73
2023/04/01 09:45:58;;;;;;;6.72;2.42;;;;;;;;;;5011967;28;20076;-73
2023/04/01 09:48:24;;;;;;;5.47;2.28;;;;;;;;;;5016153;28;20045;-73
2023/04/01 09:50:58;;;;;;;4.03;2.13;;;;;;;;;;5023394;28;20128;-73
2023/04/01 09:53:42;;;;;;;6.07;2.70;;;;;;;;;;5025795;28;20140;-74
2023/04/01 09:56:08;;;;;;;5.03;1.95;;;;;;;;;;5018689;28;20063;-73
2023/04/01 09:58:54;;;;;;;2.28;2.08;;;;;;;;;;5015483;28;20042;-73
2023/04/01 10:01:31;;;;;;;2.30;2.00;;;;;;;;;;5005182;28;20045;-73
2023/04/01 10:04:15;;;;;;;2.60;1.77;;;;;;;;;;5012313;28;20784;-73
2023/04/01 10:07:00;;;;;;;5.93;2.25;;;;;;;;;;4997217;28;20041;-73
2023/04/01 10:09:45;;;;;;;3.40;2.28;;;;;;;;;;5015791;28;20603;-74
2023/04/01 10:12:33;;;;;;;3.72;2.55;;;;;;;;;;5013461;28;20086;-73
2023/04/01 10:15:11;;;;;;;5.45;2.40;;;;;;;;;;5014858;28;20670;-73
2023/04/01 10:17:37;;;;;;;3.78;2.15;;;;;;;;;;4999312;28;20106;-73
2023/04/01 10:20:21;;;;;;;4.45;2.55;;;;;;;;;;5010326;28;20599;-73
2023/04/01 10:22:47;;;;;;;3.00;2.55;;;;;;;;;;5014941;28;21310;-73
2023/04/01 10:25:32;;;;;;;7.97;3.30;;;;;;;;;;4997677;28;20480;-73
2023/04/01 10:28:06;;;;;;;2.38;2.10;;;;;;;;;;5014739;28;20104;-73
2023/04/01 10:30:35;;;;;;;3.95;2.47;;;;;;;;;;5015617;28;20099;-72
2023/04/01 10:33:20;;;;;;;6.95;2.38;;;;;;;;;;5011199;28;20060;-73
2023/04/01 10:35:46;;;;;;;2.42;2.22;;;;;;;;;;5010705;28;20964;-74
2023/04/01 10:38:12;;;;;;;4.50;2.70;;;;;;;;;;5012118;28;20048;-73
2023/04/01 10:40:47;;;;;;;5.47;2.72;;;;;;;;;;5008425;28;20845;-74
2023/04/01 10:43:20;;;;;;;5.28;2.55;;;;;;;;;;5000109;28;20040;-73
2023/04/01 10:45:49;;;;;;;3.63;2.30;;;;;;;;;;5013710;28;20041;-73
2023/04/01 10:48:18;;;;;;;4.85;2.40;;;;;;;;;;5018109;28;20052;-73
2023/04/01 10:51:03;;;;;;;3.65;2.45;;;;;;;;;;5018486;28;20106;-73
2023/04/01 10:53:52;;;;;;;2.90;2.10;;;;;;;;;;5018926;28;20057;-73
2023/04/01 10:56:33;;;;;;;2.53;2.08;;;;;;;;;;5013123;28;20096;-73
2023/04/01 10:59:08;;;;;;;2.20;1.80;;;;;;;;;;5018802;28;20440;-73
2023/04/01 11:01:53;;;;;;;2.85;2.13;;;;;;;;;;5005128;28;20131;-73
2023/04/01 11:04:32;;;;;;;3.00;1.98;;;;;;;;;;5019744;28;20052;-73
2023/04/01 11:07:22;;;;;;;3.78;1.92;;;;;;;;;;5019105;28;20164;-73
2023/04/01 11:09:54;;;;;;;3.90;1.90;;;;;;;;;;5016111;28;20095;-73
2023/04/01 11:12:36;;;;;;;3.05;2.00;;;;;;;;;;5017863;28;20048;-73
2023/04/01 11:15:05;;;;;;;2.55;1.70;;;;;;;;;;5000404;28;20061;-73
2023/04/01 11:17:50;;;;;;;3.72;1.73;;;;;;;;;;5014771;28;20140;-73
2023/04/01 11:20:22;;;;;;;2.60;1.80;;;;;;;;;;5018466;28;20485;-72
2023/04/01 11:22:48;;;;;;;2.97;1.85;;;;;;;;;;4999128;28;20047;-75
2023/04/01 11:25:21;;;;;;;3.08;1.60;;;;;;;;;;5018781;28;20048;-74
2023/04/01 11:28:10;;;;;;;3.37;1.40;;;;;;;;;;5020587;28;20079;-73
2023/04/01 11:30:36;;;;;;;2.10;1.40;;;;;;;;;;5018978;28;20436;-73
2023/04/01 11:33:15;;;;;;;3.13;1.55;;;;;;;;;;5016275;28;20473;-74
2023/04/01 11:36:01;;;;;;;3.20;1.55;;;;;;;;;;5017268;28;20476;-73
2023/04/01 11:38:30;;;;;;;2.22;1.48;;;;;;;;;;5016470;28;20494;-73
2023/04/01 11:41:10;;;;;;;4.15;1.60;;;;;;;;;;5015849;28;20103;-73
2023/04/01 11:43:55;;;;;;;1.45;1.35;;;;;;;;;;5002940;28;20060;-73
2023/04/01 11:46:31;;;;;;;4.68;1.60;;;;;;;;;;5016048;28;20077;-72
2023/04/01 11:49:08;;;;;;;4.07;1.55;;;;;;;;;;4997468;28;20072;-73
2023/04/01 11:51:37;;;;;;;6.13;2.05;;;;;;;;;;5014841;28;20049;-72
2023/04/01 11:54:11;;;;;;;2.42;1.40;;;;;;;;;;5017219;28;20476;-73
2023/04/01 11:56:37;;;;;;;2.65;1.50;;;;;;;;;;5017675;28;20091;-73
2023/04/01 11:59:06;;;;;;;2.20;1.40;;;;;;;;;;5017904;28;20450;-73
2023/04/01 12:01:54;;;;;;;1.95;1.45;;;9.70;99.90;;;;;;5015306;28;20036;-73
2023/04/01 12:04:23;;;;;;;3.33;1.38;;;;;;;;;;5019009;28;20721;-73
2023/04/01 12:06:55;;;;;;;1.45;0.90;;;;;;;;;;5017335;28;20049;-73
2023/04/01 12:09:33;;;;;;;1.40;1.20;;;;;;;;;;5001253;28;20045;-73
2023/04/01 12:12:18;;;;;;;2.00;1.38;;;;;;;;;;5016064;28;20103;-73
2023/04/01 12:14:51;;;;;;;4.20;1.42;;;;;;;;;;5017309;28;20064;-73
2023/04/01 12:17:18;;;;;;;2.90;1.45;;;;;;;;;;5017863;28;20061;-73
2023/04/01 12:19:44;;;;;;;1.25;1.15;;;;;;;;;;5016856;28;20141;-73
2023/04/01 12:22:20;;;;;;;1.67;1.33;;;;;;;;;;4997914;28;20127;-73
2023/04/01 12:24:49;;;;;;;3.90;1.60;;;;;;;;;;5016355;28;20499;-73
2023/04/01 12:27:18;;;;;;;1.63;1.50;;;;;;;;;;5019198;28;20080;-73
2023/04/01 12:29:47;;;;;;;2.35;1.52;;;;;;;;;;5016248;28;20510;-74
2023/04/01 12:32:25;;;;;;;1.60;1.50;;;;;;;;;;5016164;28;20052;-73
2023/04/01 12:35:07;;;;;;;2.35;1.30;;;;;;;;;;5018128;28;20049;-73
2023/04/01 12:37:42;;;;;;;1.98;1.30;;;;;;;;;;4997081;28;20754;-72
2023/04/01 12:40:17;;;;;;;2.13;1.20;;;;;;;;;;5018517;28;20408;-72
2023/04/01 12:42:53;;;;;;;4.63;1.90;;;;;;;;;;5016311;28;20060;-73
2023/04/01 12:45:32;;;;;;;1.60;1.40;;;;;;;;;;5015510;28;20127;-72
2023/04/01 12:48:17;;;;;;;3.05;1.15;;;;;;;;;;5017429;28;20057;-73
2023/04/01 12:51:13;;;;;;;2.22;1.70;;;;;;;;;;5000150;28;20045;-73
2023/04/01 12:53:58;;;;;;;2.47;1.35;;;;;;;;;;4998324;28;20106;-74
2023/04/01 12:56:39;;;;;;;2.15;1.27;;;;;;;;;;5015572;28;20153;-79
2023/04/01 12:59:11;;;;;;;2.78;1.30;;;;;;;;;;5017235;28;20045;-77
2023/04/01 13:01:55;;;;;;;1.80;1.10;;;;;;;;;;5024831;28;20120;-76
2023/04/01 13:04:21;;;;;;;;;;;;;;;;;;5021714;28;20596;-77
2023/04/01 13:07:06;;;;;;;2.33;1.33;;;;;;;;;;5022693;28;19928;-77
2023/04/01 13:09:51;;;;;;;2.13;1.10;;;;;;;;;;5021765;28;20131;-77
2023/04/01 13:12:17;;;;;;;;;;;;;;;;;;5020259;28;20041;-77
2023/04/01 13:14:56;;;;;;;1.88;1.05;;;;;;;;;;5023004;28;20297;-76
2023/04/01 13:17:23;;;;;;;2.13;1.20;;;;;;;;;;5018052;28;20041;-80
2023/04/01 13:20:08;;;;;;;2.00;1.20;;;;;;;;;;5017711;28;20049;-74
2023/04/01 13:22:34;;;;;;;1.55;1.25;;;;;;;;;;5016208;28;20056;-74
2023/04/01 13:25:05;;;;;;;2.50;1.25;;;;;;;;;;5014885;28;20038;-73
2023/04/01 13:28:06;;;;;;;1.50;1.30;;;;;;;;;;5008514;28;20145;-72
2023/04/01 13:30:40;;;;;;;1.75;1.00;;;;;;;;;;4979789;28;20042;-73
2023/04/01 13:33:16;;;;;;;2.83;1.20;;;;;;;;;;5008107;28;20053;-73
2023/04/01 13:35:54;;;;;;;1.70;1.50;;;;;;;;;;5009652;28;20378;-73
2023/04/01 13:38:20;;;;;;;1.63;1.00;;;;;;;;;;5011626;28;21591;-73
2023/04/01 13:40:55;;;;;;;1.42;1.20;;;;;;;;;;5010754;28;20049;-73
2023/04/01 13:43:21;;;;;;;5.75;1.48;;;;;;;;;;5007743;28;20124;-73
2023/04/01 13:46:07;;;;;;;1.83;1.23;;;;;;;;;;4994124;28;20095;-74
2023/04/01 13:48:42;;;;;;;2.28;1.10;;;;;;;;;;4995625;28;20049;-73
2023/04/01 13:51:31;;;;;;;3.22;1.38;;;;;;;;;;5008109;28;20578;-73
2023/04/01 13:53:57;;;;;;;2.40;1.35;;;;;;;;;;5002969;28;20045;-73
2023/04/01 13:56:51;;;;;;;2.47;1.10;;;;;;;;;;5012495;28;20120;-74
2023/04/01 13:59:28;;;;;;;2.85;1.30;;;;;;;;;;5007731;28;20560;-73
2023/04/01 14:02:00;;;;;;;2.15;1.45;;;;;;;;;;5009712;28;20129;-73
2023/04/01 14:04:35;;;;;;;2.50;1.30;;;;;;;;;;5016141;28;20056;-73
2023/04/01 14:07:07;;;;;;;1.30;1.10;;;;;;;;;;5008989;28;20052;-73
2023/04/01 14:09:33;;;;;;;2.92;1.27;;;;;;;;;;5006365;28;20040;-72
2023/04/01 14:12:09;;;;;;;2.60;1.30;;;;;;;;;;5004321;28;20049;-73
2023/04/01 14:14:39;;;;;;;3.30;1.55;;;;;;;;;;5007304;28;20111;-73
2023/04/01 14:17:10;;;;;;;2.85;1.55;;;;;;;;;;5010879;28;20111;-73
2023/04/01 14:19:37;;;;;;;1.85;1.52;;;;;;;;;;4992552;28;20071;-73
2023/04/01 14:22:13;;;;;;;3.97;1.50;;;;;;;;;;5009669;28;20372;-72
2023/04/01 14:24:46;;;;;;;2.53;1.50;;;;;;;;;;5008520;28;20049;-73
2023/04/01 14:27:12;;;;;;;3.13;1.90;;;;;;;;;;5016658;28;20073;-73
2023/04/01 14:29:53;;;;;;;1.73;1.63;;;;;;;;;;5010446;28;20391;-73
2023/04/01 14:32:35;;;;;;;3.33;1.92;;;;;;;;;;5012737;28;20458;-73
2023/04/01 14:35:04;;;;;;;5.35;2.20;;;;;;;;;;5011747;28;20065;-73
2023/04/01 14:37:41;;;;;;;2.67;1.80;;;;;;;;;;5012402;28;20037;-73
2023/04/01 14:40:17;;;;;;;4.43;1.95;;;;;;;;;;5007925;28;20041;-73
2023/04/01 14:43:01;;;;;;;2.80;2.28;;;;;;;;;;5011550;28;20099;-72
2023/04/01 14:45:52;;;;;;;2.85;2.33;;;;;;;;;;5010893;28;20801;-73
2023/04/01 14:48:18;;;;;;;4.18;2.20;;;;;;;;;;5013034;28;20139;-73
2023/04/01 14:50:50;;;;;;;3.35;2.38;;;;;;;;;;5010853;28;20086;-72
2023/04/01 14:53:23;;;;;;;5.95;2.50;;;;;;;;;;5016226;28;20049;-73
2023/04/01 14:55:59;;;;;;;7.00;2.90;;;;;;;;;;5015158;28;20048;-72
2023/04/01 14:58:27;;;;;;;5.28;3.00;;;;;;;;;;5011210;28;20785;-72